sensor_id;sensor_type;location;lat;lon;timestamp;noise_LAeq;noise_LA_min;noise_LA_max;noise_LA01;noise_LA95
76767;Laerm;65707;52.362;6.588;2023-02-28T00:01:22;38.94;31.00;54.22;;
76767;Laerm;65707;52.362;6.588;2023-02-28T00:03:49;35.66;30.97;43.59;;
76767;Laerm;65707;52.362;6.588;2023-02-28T00:06:17;36.22;30.72;43.01;;
76767;Laerm;65707;52.362;6.588;2023-02-28T00:08:45;37.77;31.42;45.50;;
76767;Laerm;65707;52.362;6.588;2023-02-28T00:11:14;35.62;30.72;41.65;;
76767;Laerm;65707;52.362;6.588;2023-02-28T00:13:44;36.47;31.20;41.94;;
76767;Laerm;65707;52.362;6.588;2023-02-28T00:16:14;36.78;31.10;43.68;;
76767;Laerm;65707;52.362;6.588;2023-02-28T00:18:41;37.15;30.53;44.58;;
76767;Laerm;65707;52.362;6.588;2023-02-28T00:21:08;36.15;31.30;42.96;;
76767;Laerm;65707;52.362;6.588;2023-02-28T00:23:39;35.98;31.14;41.71;;
76767;Laerm;65707;52.362;6.588;2023-02-28T00:26:07;35.01;30.50;39.75;;
76767;Laerm;65707;52.362;6.588;2023-02-28T00:28:33;70.49;31.38;85.16;;
76767;Laerm;65707;52.362;6.588;2023-02-28T00:31:00;40.03;31.30;49.48;;
76767;Laerm;65707;52.362;6.588;2023-02-28T00:33:27;37.23;31.28;42.95;;
76767;Laerm;65707;52.362;6.588;2023-02-28T00:36:06;39.00;32.10;52.06;;
76767;Laerm;65707;52.362;6.588;2023-02-28T00:38:33;36.43;31.01;42.27;;
76767;Laerm;65707;52.362;6.588;2023-02-28T00:41:00;36.10;30.99;42.31;;
76767;Laerm;65707;52.362;6.588;2023-02-28T00:43:32;35.71;30.94;40.37;;
76767;Laerm;65707;52.362;6.588;2023-02-28T00:46:00;37.70;31.02;46.27;;
76767;Laerm;65707;52.362;6.588;2023-02-28T00:48:26;37.35;30.92;44.68;;
76767;Laerm;65707;52.362;6.588;2023-02-28T00:50:53;38.29;31.59;44.86;;
76767;Laerm;65707;52.362;6.588;2023-02-28T00:53:20;35.24;30.95;39.95;;
76767;Laerm;65707;52.362;6.588;2023-02-28T00:55:49;35.30;30.46;41.04;;
76767;Laerm;65707;52.362;6.588;2023-02-28T00:58:15;37.23;32.01;52.17;;
76767;Laerm;65707;52.362;6.588;2023-02-28T01:00:44;37.56;31.53;46.85;;
76767;Laerm;65707;52.362;6.588;2023-02-28T01:03:15;35.47;30.84;40.63;;
76767;Laerm;65707;52.362;6.588;2023-02-28T01:05:43;35.59;30.46;42.19;;
76767;Laerm;65707;52.362;6.588;2023-02-28T01:08:09;35.14;30.78;39.07;;
76767;Laerm;65707;52.362;6.588;2023-02-28T01:10:36;35.96;30.88;42.92;;
76767;Laerm;65707;52.362;6.588;2023-02-28T01:13:04;36.53;30.92;43.53;;
76767;Laerm;65707;52.362;6.588;2023-02-28T01:15:32;35.62;30.69;42.21;;
76767;Laerm;65707;52.362;6.588;2023-02-28T01:18:00;36.53;30.70;42.44;;
76767;Laerm;65707;52.362;6.588;2023-02-28T01:20:27;36.40;30.80;42.68;;
76767;Laerm;65707;52.362;6.588;2023-02-28T01:22:54;35.57;30.91;45.29;;
76767;Laerm;65707;52.362;6.588;2023-02-28T01:25:21;35.77;31.04;40.86;;
76767;Laerm;65707;52.362;6.588;2023-02-28T01:27:48;34.53;30.34;39.32;;
76767;Laerm;65707;52.362;6.588;2023-02-28T01:30:15;35.87;30.47;45.99;;
76767;Laerm;65707;52.362;6.588;2023-02-28T01:32:42;35.10;30.50;42.35;;
76767;Laerm;65707;52.362;6.588;2023-02-28T01:35:10;34.61;30.61;39.08;;
76767;Laerm;65707;52.362;6.588;2023-02-28T01:37:37;35.00;30.38;39.19;;
76767;Laerm;65707;52.362;6.588;2023-02-28T01:40:06;35.34;30.40;42.14;;
76767;Laerm;65707;52.362;6.588;2023-02-28T01:42:33;37.36;31.15;44.64;;
76767;Laerm;65707;52.362;6.588;2023-02-28T01:45:20;34.90;30.73;39.64;;
76767;Laerm;65707;52.362;6.588;2023-02-28T01:47:53;39.88;31.51;51.53;;
76767;Laerm;65707;52.362;6.588;2023-02-28T01:50:28;36.52;31.27;49.22;;
76767;Laerm;65707;52.362;6.588;2023-02-28T01:53:02;36.33;31.62;42.20;;
76767;Laerm;65707;52.362;6.588;2023-02-28T01:55:32;35.55;30.56;50.40;;
76767;Laerm;65707;52.362;6.588;2023-02-28T01:58:04;35.20;30.58;39.92;;
76767;Laerm;65707;52.362;6.588;2023-02-28T02:00:33;37.41;30.86;48.39;;
76767;Laerm;65707;52.362;6.588;2023-02-28T02:03:06;36.21;31.76;40.59;;
76767;Laerm;65707;52.362;6.588;2023-02-28T02:05:37;35.75;31.16;40.11;;
76767;Laerm;65707;52.362;6.588;2023-02-28T02:08:09;36.32;32.04;42.35;;
76767;Laerm;65707;52.362;6.588;2023-02-28T02:10:42;70.31;31.85;83.53;;
76767;Laerm;65707;52.362;6.588;2023-02-28T02:13:28;36.69;30.99;48.97;;
76767;Laerm;65707;52.362;6.588;2023-02-28T02:16:10;39.75;30.81;53.24;;
76767;Laerm;65707;52.362;6.588;2023-02-28T02:18:46;38.94;31.26;53.11;;
76767;Laerm;65707;52.362;6.588;2023-02-28T02:25:10;35.19;30.57;39.25;;
76767;Laerm;65707;52.362;6.588;2023-02-28T02:28:22;35.76;30.90;39.94;;
76767;Laerm;65707;52.362;6.588;2023-02-28T02:31:33;37.36;30.92;48.98;;
76767;Laerm;65707;52.362;6.588;2023-02-28T02:34:39;36.18;31.18;42.87;;
76767;Laerm;65707;52.362;6.588;2023-02-28T02:37:29;36.24;31.40;42.17;;
76767;Laerm;65707;52.362;6.588;2023-02-28T02:40:07;36.39;31.40;40.69;;
76767;Laerm;65707;52.362;6.588;2023-02-28T02:42:44;35.56;30.98;40.55;;
76767;Laerm;65707;52.362;6.588;2023-02-28T02:45:19;37.70;31.21;51.15;;
76767;Laerm;65707;52.362;6.588;2023-02-28T02:47:49;38.25;30.82;51.20;;
76767;Laerm;65707;52.362;6.588;2023-02-28T02:50:24;36.63;31.09;43.59;;
76767;Laerm;65707;52.362;6.588;2023-02-28T02:52:57;36.60;31.27;44.78;;
76767;Laerm;65707;52.362;6.588;2023-02-28T02:55:27;37.18;31.53;44.68;;
76767;Laerm;65707;52.362;6.588;2023-02-28T02:58:01;37.45;31.81;47.01;;
76767;Laerm;65707;52.362;6.588;2023-02-28T03:00:34;38.90;32.29;47.88;;
76767;Laerm;65707;52.362;6.588;2023-02-28T03:03:06;59.31;32.15;80.84;;
76767;Laerm;65707;52.362;6.588;2023-02-28T03:05:45;69.55;32.03;85.27;;
76767;Laerm;65707;52.362;6.588;2023-02-28T03:08:13;38.11;31.74;56.30;;
76767;Laerm;65707;52.362;6.588;2023-02-28T03:10:42;37.35;31.74;54.30;;
76767;Laerm;65707;52.362;6.588;2023-02-28T03:13:45;37.74;31.15;50.83;;
76767;Laerm;65707;52.362;6.588;2023-02-28T03:16:33;35.34;31.18;40.60;;
76767;Laerm;65707;52.362;6.588;2023-02-28T03:19:34;37.52;31.04;54.30;;
76767;Laerm;65707;52.362;6.588;2023-02-28T03:22:30;36.12;31.34;45.39;;
76767;Laerm;65707;52.362;6.588;2023-02-28T03:25:08;36.94;31.29;45.13;;
76767;Laerm;65707;52.362;6.588;2023-02-28T03:27:48;36.14;30.88;43.65;;
76767;Laerm;65707;52.362;6.588;2023-02-28T03:30:26;37.11;31.66;46.17;;
76767;Laerm;65707;52.362;6.588;2023-02-28T03:33:01;37.35;32.37;46.48;;
76767;Laerm;65707;52.362;6.588;2023-02-28T03:35:34;39.72;32.91;54.87;;
76767;Laerm;65707;52.362;6.588;2023-02-28T03:38:11;37.79;32.02;44.15;;
76767;Laerm;65707;52.362;6.588;2023-02-28T03:40:48;36.87;31.95;44.76;;
76767;Laerm;65707;52.362;6.588;2023-02-28T03:43:23;70.35;33.17;83.70;;
76767;Laerm;65707;52.362;6.588;2023-02-28T03:45:54;40.78;31.71;48.21;;
76767;Laerm;65707;52.362;6.588;2023-02-28T03:48:28;36.05;31.30;42.00;;
76767;Laerm;65707;52.362;6.588;2023-02-28T03:51:03;35.25;30.50;40.65;;
76767;Laerm;65707;52.362;6.588;2023-02-28T03:53:42;37.32;30.83;52.21;;
76767;Laerm;65707;52.362;6.588;2023-02-28T03:56:16;41.82;31.56;52.95;;
76767;Laerm;65707;52.362;6.588;2023-02-28T03:58:51;36.80;30.98;47.25;;
76767;Laerm;65707;52.362;6.588;2023-02-28T04:01:25;37.78;30.99;45.38;;
76767;Laerm;65707;52.362;6.588;2023-02-28T04:03:53;36.28;31.05;47.80;;
76767;Laerm;65707;52.362;6.588;2023-02-28T04:06:22;36.85;31.43;48.21;;
76767;Laerm;65707;52.362;6.588;2023-02-28T04:08:51;70.56;32.10;83.94;;
76767;Laerm;65707;52.362;6.588;2023-02-28T04:11:27;37.96;31.11;49.42;;
76767;Laerm;65707;52.362;6.588;2023-02-28T04:13:56;58.72;31.89;78.28;;
76767;Laerm;65707;52.362;6.588;2023-02-28T04:16:23;37.98;32.76;49.87;;
76767;Laerm;65707;52.362;6.588;2023-02-28T04:18:50;40.18;32.49;54.43;;
76767;Laerm;65707;52.362;6.588;2023-02-28T04:21:16;39.68;32.11;52.68;;
76767;Laerm;65707;52.362;6.588;2023-02-28T04:23:46;40.81;31.88;55.29;;
76767;Laerm;65707;52.362;6.588;2023-02-28T04:26:14;39.05;32.46;51.36;;
76767;Laerm;65707;52.362;6.588;2023-02-28T04:28:40;37.76;32.19;44.48;;
76767;Laerm;65707;52.362;6.588;2023-02-28T04:31:08;39.90;32.48;51.63;;
76767;Laerm;65707;52.362;6.588;2023-02-28T04:33:36;43.55;33.18;54.43;;
76767;Laerm;65707;52.362;6.588;2023-02-28T04:36:05;39.95;32.74;56.53;;
76767;Laerm;65707;52.362;6.588;2023-02-28T04:38:34;38.98;33.58;51.44;;
76767;Laerm;65707;52.362;6.588;2023-02-28T04:41:02;60.58;34.71;77.96;;
76767;Laerm;65707;52.362;6.588;2023-02-28T04:43:31;42.18;34.71;54.03;;
76767;Laerm;65707;52.362;6.588;2023-02-28T04:46:03;42.44;34.46;55.99;;
76767;Laerm;65707;52.362;6.588;2023-02-28T04:48:35;44.41;33.33;59.01;;
76767;Laerm;65707;52.362;6.588;2023-02-28T04:51:04;46.39;34.29;59.86;;
76767;Laerm;65707;52.362;6.588;2023-02-28T04:53:32;45.25;33.23;60.43;;
76767;Laerm;65707;52.362;6.588;2023-02-28T04:56:00;45.38;34.29;58.18;;
76767;Laerm;65707;52.362;6.588;2023-02-28T04:58:27;45.83;33.54;61.27;;
76767;Laerm;65707;52.362;6.588;2023-02-28T05:01:02;53.31;34.63;72.78;;
76767;Laerm;65707;52.362;6.588;2023-02-28T05:03:30;44.84;33.93;58.95;;
76767;Laerm;65707;52.362;6.588;2023-02-28T05:05:57;44.46;35.71;59.14;;
76767;Laerm;65707;52.362;6.588;2023-02-28T05:08:23;54.99;35.02;71.77;;
76767;Laerm;65707;52.362;6.588;2023-02-28T05:10:50;62.39;35.80;78.15;;
76767;Laerm;65707;52.362;6.588;2023-02-28T05:13:17;46.34;34.79;67.74;;
76767;Laerm;65707;52.362;6.588;2023-02-28T05:15:44;44.18;33.65;54.98;;
76767;Laerm;65707;52.362;6.588;2023-02-28T05:18:12;44.73;34.95;60.19;;
76767;Laerm;65707;52.362;6.588;2023-02-28T05:20:39;45.54;35.46;57.99;;
76767;Laerm;65707;52.362;6.588;2023-02-28T05:23:08;45.55;34.39;58.43;;
76767;Laerm;65707;52.362;6.588;2023-02-28T05:25:35;44.08;35.53;59.28;;
76767;Laerm;65707;52.362;6.588;2023-02-28T05:28:02;44.42;35.07;58.37;;
76767;Laerm;65707;52.362;6.588;2023-02-28T05:30:29;56.15;36.34;72.24;;
76767;Laerm;65707;52.362;6.588;2023-02-28T05:32:58;48.45;36.44;63.49;;
76767;Laerm;65707;52.362;6.588;2023-02-28T05:35:26;46.68;35.83;67.18;;
76767;Laerm;65707;52.362;6.588;2023-02-28T05:37:53;46.55;34.73;68.27;;
76767;Laerm;65707;52.362;6.588;2023-02-28T05:40:20;62.59;37.16;78.56;;
76767;Laerm;65707;52.362;6.588;2023-02-28T05:42:47;44.99;36.77;56.57;;
76767;Laerm;65707;52.362;6.588;2023-02-28T05:45:14;43.83;35.31;58.04;;
76767;Laerm;65707;52.362;6.588;2023-02-28T05:47:40;46.73;35.80;58.80;;
76767;Laerm;65707;52.362;6.588;2023-02-28T05:50:09;47.61;36.54;58.79;;
76767;Laerm;65707;52.362;6.588;2023-02-28T05:52:37;45.66;35.42;61.89;;
76767;Laerm;65707;52.362;6.588;2023-02-28T05:55:05;44.89;36.12;56.94;;
76767;Laerm;65707;52.362;6.588;2023-02-28T05:57:32;45.60;35.08;57.62;;
76767;Laerm;65707;52.362;6.588;2023-02-28T05:59:59;55.51;36.09;71.36;;
76767;Laerm;65707;52.362;6.588;2023-02-28T06:02:26;43.99;35.98;56.26;;
76767;Laerm;65707;52.362;6.588;2023-02-28T06:04:53;46.44;35.72;65.46;;
76767;Laerm;65707;52.362;6.588;2023-02-28T06:07:20;48.09;37.34;56.20;;
76767;Laerm;65707;52.362;6.588;2023-02-28T06:09:49;44.40;37.14;57.50;;
76767;Laerm;65707;52.362;6.588;2023-02-28T06:12:16;63.53;37.61;78.38;;
76767;Laerm;65707;52.362;6.588;2023-02-28T06:14:43;45.62;37.72;57.22;;
76767;Laerm;65707;52.362;6.588;2023-02-28T06:17:10;45.46;38.43;58.06;;
76767;Laerm;65707;52.362;6.588;2023-02-28T06:19:37;61.87;40.79;79.65;;
76767;Laerm;65707;52.362;6.588;2023-02-28T06:22:06;46.82;39.41;57.71;;
76767;Laerm;65707;52.362;6.588;2023-02-28T06:24:36;47.70;40.15;67.23;;
76767;Laerm;65707;52.362;6.588;2023-02-28T06:27:04;60.52;39.95;79.24;;
76767;Laerm;65707;52.362;6.588;2023-02-28T06:29:32;50.80;39.15;69.21;;
76767;Laerm;65707;52.362;6.588;2023-02-28T06:31:58;55.85;40.24;71.90;;
76767;Laerm;65707;52.362;6.588;2023-02-28T06:34:25;46.34;39.77;57.85;;
76767;Laerm;65707;52.362;6.588;2023-02-28T06:36:55;46.39;39.00;58.82;;
76767;Laerm;65707;52.362;6.588;2023-02-28T06:39:22;47.67;39.23;60.12;;
76767;Laerm;65707;52.362;6.588;2023-02-28T06:41:49;62.57;38.75;79.98;;
76767;Laerm;65707;52.362;6.588;2023-02-28T06:44:19;48.60;40.23;58.05;;
76767;Laerm;65707;52.362;6.588;2023-02-28T06:46:46;47.88;41.98;56.66;;
76767;Laerm;65707;52.362;6.588;2023-02-28T06:49:14;47.59;41.67;58.31;;
76767;Laerm;65707;52.362;6.588;2023-02-28T06:51:43;47.98;42.43;55.85;;
76767;Laerm;65707;52.362;6.588;2023-02-28T06:54:11;48.09;41.75;63.58;;
76767;Laerm;65707;52.362;6.588;2023-02-28T06:56:38;59.44;43.07;79.83;;
76767;Laerm;65707;52.362;6.588;2023-02-28T06:59:05;54.32;43.75;72.96;;
76767;Laerm;65707;52.362;6.588;2023-02-28T07:01:34;48.87;43.09;65.29;;
76767;Laerm;65707;52.362;6.588;2023-02-28T07:04:01;59.77;43.13;85.22;;
76767;Laerm;65707;52.362;6.588;2023-02-28T07:06:31;47.01;42.35;56.70;;
76767;Laerm;65707;52.362;6.588;2023-02-28T07:08:59;47.30;41.86;56.73;;
76767;Laerm;65707;52.362;6.588;2023-02-28T07:11:27;60.40;41.98;78.42;;
76767;Laerm;65707;52.362;6.588;2023-02-28T07:13:55;46.98;42.00;59.40;;
76767;Laerm;65707;52.362;6.588;2023-02-28T07:16:24;49.97;44.36;63.46;;
76767;Laerm;65707;52.362;6.588;2023-02-28T07:18:54;67.20;44.45;81.12;;
76767;Laerm;65707;52.362;6.588;2023-02-28T07:21:22;56.52;43.15;75.83;;
76767;Laerm;65707;52.362;6.588;2023-02-28T07:23:49;46.47;42.46;54.12;;
76767;Laerm;65707;52.362;6.588;2023-02-28T07:26:19;47.84;41.96;63.40;;
76767;Laerm;65707;52.362;6.588;2023-02-28T07:28:48;51.47;42.67;69.62;;
76767;Laerm;65707;52.362;6.588;2023-02-28T07:31:16;54.12;42.41;72.25;;
76767;Laerm;65707;52.362;6.588;2023-02-28T07:33:44;48.45;42.80;57.95;;
76767;Laerm;65707;52.362;6.588;2023-02-28T07:36:15;48.08;40.75;72.15;;
76767;Laerm;65707;52.362;6.588;2023-02-28T07:38:46;49.94;41.96;66.97;;
76767;Laerm;65707;52.362;6.588;2023-02-28T07:41:20;65.17;40.58;79.27;;
76767;Laerm;65707;52.362;6.588;2023-02-28T07:43:49;49.33;43.00;68.25;;
76767;Laerm;65707;52.362;6.588;2023-02-28T07:46:16;67.43;41.40;78.91;;
76767;Laerm;65707;52.362;6.588;2023-02-28T07:48:45;49.83;41.42;61.83;;
76767;Laerm;65707;52.362;6.588;2023-02-28T07:51:13;59.85;42.12;77.81;;
76767;Laerm;65707;52.362;6.588;2023-02-28T07:53:40;57.71;41.11;78.75;;
76767;Laerm;65707;52.362;6.588;2023-02-28T07:56:08;46.07;39.55;55.25;;
76767;Laerm;65707;52.362;6.588;2023-02-28T07:58:39;48.05;40.45;64.35;;
76767;Laerm;65707;52.362;6.588;2023-02-28T08:01:07;54.65;41.44;73.75;;
76767;Laerm;65707;52.362;6.588;2023-02-28T08:03:36;45.06;38.95;58.30;;
76767;Laerm;65707;52.362;6.588;2023-02-28T08:06:04;46.30;39.64;57.04;;
76767;Laerm;65707;52.362;6.588;2023-02-28T08:08:33;45.63;37.29;56.69;;
76767;Laerm;65707;52.362;6.588;2023-02-28T08:11:02;57.91;38.72;77.31;;
76767;Laerm;65707;52.362;6.588;2023-02-28T08:13:30;43.90;37.40;53.51;;
76767;Laerm;65707;52.362;6.588;2023-02-28T08:15:57;46.63;37.73;60.09;;
76767;Laerm;65707;52.362;6.588;2023-02-28T08:18:24;45.93;36.92;58.34;;
76767;Laerm;65707;52.362;6.588;2023-02-28T08:20:51;60.63;39.89;79.58;;
76767;Laerm;65707;52.362;6.588;2023-02-28T08:23:18;44.18;34.51;59.07;;
76767;Laerm;65707;52.362;6.588;2023-02-28T08:25:53;44.02;36.96;58.83;;
76767;Laerm;65707;52.362;6.588;2023-02-28T08:28:20;45.27;37.74;58.75;;
76767;Laerm;65707;52.362;6.588;2023-02-28T08:30:47;52.08;36.21;69.03;;
76767;Laerm;65707;52.362;6.588;2023-02-28T08:33:14;45.13;37.34;61.60;;
76767;Laerm;65707;52.362;6.588;2023-02-28T08:35:41;65.80;38.04;81.61;;
76767;Laerm;65707;52.362;6.588;2023-02-28T08:38:08;58.57;38.35;77.62;;
76767;Laerm;65707;52.362;6.588;2023-02-28T08:40:35;59.33;37.58;78.56;;
76767;Laerm;65707;52.362;6.588;2023-02-28T08:43:04;42.84;35.08;53.81;;
76767;Laerm;65707;52.362;6.588;2023-02-28T08:45:31;44.37;35.77;55.04;;
76767;Laerm;65707;52.362;6.588;2023-02-28T08:47:59;45.64;34.99;56.10;;
76767;Laerm;65707;52.362;6.588;2023-02-28T08:50:25;45.29;36.24;55.34;;
76767;Laerm;65707;52.362;6.588;2023-02-28T08:52:52;45.28;37.07;61.47;;
76767;Laerm;65707;52.362;6.588;2023-02-28T08:55:19;59.82;34.39;79.88;;
76767;Laerm;65707;52.362;6.588;2023-02-28T08:57:47;46.45;34.64;60.65;;
76767;Laerm;65707;52.362;6.588;2023-02-28T09:00:16;52.28;36.71;71.10;;
76767;Laerm;65707;52.362;6.588;2023-02-28T09:02:43;51.41;36.61;70.34;;
76767;Laerm;65707;52.362;6.588;2023-02-28T09:05:10;45.64;36.65;53.70;;
76767;Laerm;65707;52.362;6.588;2023-02-28T09:07:36;45.02;36.22;61.44;;
76767;Laerm;65707;52.362;6.588;2023-02-28T09:10:04;45.73;37.79;58.21;;
76767;Laerm;65707;52.362;6.588;2023-02-28T09:12:34;63.07;34.95;81.15;;
76767;Laerm;65707;52.362;6.588;2023-02-28T09:15:01;44.05;36.24;57.49;;
76767;Laerm;65707;52.362;6.588;2023-02-28T09:17:29;43.74;35.36;53.81;;
76767;Laerm;65707;52.362;6.588;2023-02-28T09:19:56;59.93;36.69;79.46;;
76767;Laerm;65707;52.362;6.588;2023-02-28T09:22:23;46.46;39.44;58.77;;
76767;Laerm;65707;52.362;6.588;2023-02-28T09:24:50;46.18;38.36;67.48;;
76767;Laerm;65707;52.362;6.588;2023-02-28T09:27:17;44.08;37.91;57.63;;
76767;Laerm;65707;52.362;6.588;2023-02-28T09:29:43;52.45;37.16;71.08;;
76767;Laerm;65707;52.362;6.588;2023-02-28T09:32:10;52.78;36.35;71.66;;
76767;Laerm;65707;52.362;6.588;2023-02-28T09:34:38;45.57;38.26;57.83;;
76767;Laerm;65707;52.362;6.588;2023-02-28T09:37:05;45.83;39.81;57.53;;
76767;Laerm;65707;52.362;6.588;2023-02-28T09:39:32;45.70;35.63;56.71;;
76767;Laerm;65707;52.362;6.588;2023-02-28T09:41:59;64.94;38.25;79.71;;
76767;Laerm;65707;52.362;6.588;2023-02-28T09:44:35;46.50;35.54;72.26;;
76767;Laerm;65707;52.362;6.588;2023-02-28T09:47:15;46.09;35.72;65.16;;
76767;Laerm;65707;52.362;6.588;2023-02-28T09:49:47;60.48;37.38;79.44;;
76767;Laerm;65707;52.362;6.588;2023-02-28T09:52:20;44.34;37.43;54.48;;
76767;Laerm;65707;52.362;6.588;2023-02-28T09:54:48;44.13;35.49;53.19;;
76767;Laerm;65707;52.362;6.588;2023-02-28T09:57:29;44.90;35.73;58.46;;
76767;Laerm;65707;52.362;6.588;2023-02-28T10:00:10;54.14;37.73;73.29;;
76767;Laerm;65707;52.362;6.588;2023-02-28T10:02:54;46.93;36.35;55.61;;
76767;Laerm;65707;52.362;6.588;2023-02-28T10:05:31;43.92;37.05;53.70;;
76767;Laerm;65707;52.362;6.588;2023-02-28T10:08:11;44.19;36.37;53.74;;
76767;Laerm;65707;52.362;6.588;2023-02-28T10:10:42;59.91;36.59;78.51;;
76767;Laerm;65707;52.362;6.588;2023-02-28T10:13:23;44.88;39.50;54.53;;
76767;Laerm;65707;52.362;6.588;2023-02-28T10:15:56;46.28;36.58;59.53;;
76767;Laerm;65707;52.362;6.588;2023-02-28T10:18:30;45.76;37.68;57.43;;
76767;Laerm;65707;52.362;6.588;2023-02-28T10:21:05;58.68;45.18;78.41;;
76767;Laerm;65707;52.362;6.588;2023-02-28T10:23:35;50.82;43.89;57.28;;
76767;Laerm;65707;52.362;6.588;2023-02-28T10:26:12;63.12;36.58;79.99;;
76767;Laerm;65707;52.362;6.588;2023-02-28T10:28:42;43.41;36.51;52.82;;
76767;Laerm;65707;52.362;6.588;2023-02-28T10:31:15;54.81;37.04;71.45;;
76767;Laerm;65707;52.362;6.588;2023-02-28T10:33:44;44.89;37.13;58.47;;
76767;Laerm;65707;52.362;6.588;2023-02-28T10:36:17;44.54;35.94;59.73;;
76767;Laerm;65707;52.362;6.588;2023-02-28T10:38:45;46.07;36.46;57.56;;
76767;Laerm;65707;52.362;6.588;2023-02-28T10:41:17;59.61;37.31;77.60;;
76767;Laerm;65707;52.362;6.588;2023-02-28T10:43:53;48.21;35.55;66.97;;
76767;Laerm;65707;52.362;6.588;2023-02-28T10:46:40;42.84;36.08;53.61;;
76767;Laerm;65707;52.362;6.588;2023-02-28T10:49:17;44.98;38.03;61.93;;
76767;Laerm;65707;52.362;6.588;2023-02-28T10:51:52;43.38;36.28;54.39;;
76767;Laerm;65707;52.362;6.588;2023-02-28T10:54:26;59.27;38.10;79.37;;
76767;Laerm;65707;52.362;6.588;2023-02-28T10:57:15;57.88;37.03;79.09;;
76767;Laerm;65707;52.362;6.588;2023-02-28T10:59:43;51.42;36.86;70.23;;
76767;Laerm;65707;52.362;6.588;2023-02-28T11:02:37;46.76;38.81;58.73;;
76767;Laerm;65707;52.362;6.588;2023-02-28T11:05:26;54.69;39.81;69.28;;
76767;Laerm;65707;52.362;6.588;2023-02-28T11:08:10;48.42;37.42;66.44;;
76767;Laerm;65707;52.362;6.588;2023-02-28T11:10:39;60.03;39.48;76.95;;
76767;Laerm;65707;52.362;6.588;2023-02-28T11:13:06;63.18;35.56;79.88;;
76767;Laerm;65707;52.362;6.588;2023-02-28T11:15:35;66.89;38.34;81.83;;
76767;Laerm;65707;52.362;6.588;2023-02-28T11:18:20;46.01;38.47;61.60;;
76767;Laerm;65707;52.362;6.588;2023-02-28T11:20:50;59.38;36.44;78.76;;
76767;Laerm;65707;52.362;6.588;2023-02-28T11:23:26;43.94;36.80;56.08;;
76767;Laerm;65707;52.362;6.588;2023-02-28T11:25:58;42.62;35.32;54.95;;
76767;Laerm;65707;52.362;6.588;2023-02-28T11:28:30;41.46;36.42;52.16;;
76767;Laerm;65707;52.362;6.588;2023-02-28T11:31:06;53.99;36.87;70.60;;
76767;Laerm;65707;52.362;6.588;2023-02-28T11:33:42;44.03;36.12;53.62;;
76767;Laerm;65707;52.362;6.588;2023-02-28T11:36:14;46.93;36.00;61.68;;
76767;Laerm;65707;52.362;6.588;2023-02-28T11:38:44;61.52;38.10;79.49;;
76767;Laerm;65707;52.362;6.588;2023-02-28T11:41:35;56.81;36.93;77.49;;
76767;Laerm;65707;52.362;6.588;2023-02-28T11:44:26;44.27;37.21;62.21;;
76767;Laerm;65707;52.362;6.588;2023-02-28T11:47:00;48.93;35.40;62.54;;
76767;Laerm;65707;52.362;6.588;2023-02-28T11:49:38;59.90;36.81;78.40;;
76767;Laerm;65707;52.362;6.588;2023-02-28T11:52:27;47.17;37.64;62.56;;
76767;Laerm;65707;52.362;6.588;2023-02-28T11:55:14;44.33;35.50;56.64;;
76767;Laerm;65707;52.362;6.588;2023-02-28T12:01:07;53.77;37.59;70.44;;
76767;Laerm;65707;52.362;6.588;2023-02-28T12:03:52;44.20;36.11;52.92;;
76767;Laerm;65707;52.362;6.588;2023-02-28T12:06:28;46.42;38.28;54.67;;
76767;Laerm;65707;52.362;6.588;2023-02-28T12:09:13;44.62;37.15;53.15;;
76767;Laerm;65707;52.362;6.588;2023-02-28T12:11:53;58.90;38.19;78.50;;
76767;Laerm;65707;52.362;6.588;2023-02-28T12:15:00;44.80;38.11;54.39;;
76767;Laerm;65707;52.362;6.588;2023-02-28T12:17:45;43.23;36.16;51.84;;
76767;Laerm;65707;52.362;6.588;2023-02-28T12:20:30;63.24;38.69;78.34;;
76767;Laerm;65707;52.362;6.588;2023-02-28T12:23:22;46.73;39.22;66.51;;
76767;Laerm;65707;52.362;6.588;2023-02-28T12:26:10;44.58;35.94;57.08;;
76767;Laerm;65707;52.362;6.588;2023-02-28T12:28:46;47.66;37.27;67.01;;
76767;Laerm;65707;52.362;6.588;2023-02-28T12:31:21;53.87;38.60;72.65;;
76767;Laerm;65707;52.362;6.588;2023-02-28T12:33:53;45.84;38.85;55.78;;
76767;Laerm;65707;52.362;6.588;2023-02-28T12:36:22;43.85;36.37;56.94;;
76767;Laerm;65707;52.362;6.588;2023-02-28T12:38:58;44.54;37.18;60.72;;
76767;Laerm;65707;52.362;6.588;2023-02-28T12:41:34;59.54;37.20;77.59;;
76767;Laerm;65707;52.362;6.588;2023-02-28T12:44:12;44.29;37.23;54.96;;
76767;Laerm;65707;52.362;6.588;2023-02-28T12:46:44;44.28;36.91;56.77;;
76767;Laerm;65707;52.362;6.588;2023-02-28T12:49:18;57.99;37.16;78.96;;
76767;Laerm;65707;52.362;6.588;2023-02-28T12:51:47;43.98;37.64;57.12;;
76767;Laerm;65707;52.362;6.588;2023-02-28T12:54:24;46.07;35.22;60.72;;
76767;Laerm;65707;52.362;6.588;2023-02-28T12:57:02;48.82;37.35;69.20;;
76767;Laerm;65707;52.362;6.588;2023-02-28T12:59:41;51.91;37.66;69.43;;
76767;Laerm;65707;52.362;6.588;2023-02-28T13:02:43;50.64;38.39;72.03;;
76767;Laerm;65707;52.362;6.588;2023-02-28T13:05:34;44.98;37.09;54.11;;
76767;Laerm;65707;52.362;6.588;2023-02-28T13:08:59;43.08;34.98;54.93;;
76767;Laerm;65707;52.362;6.588;2023-02-28T13:11:31;61.69;37.06;79.18;;
76767;Laerm;65707;52.362;6.588;2023-02-28T13:14:02;44.94;38.84;58.36;;
76767;Laerm;65707;52.362;6.588;2023-02-28T13:16:58;45.13;36.46;61.71;;
76767;Laerm;65707;52.362;6.588;2023-02-28T13:19:29;45.44;35.96;58.22;;
76767;Laerm;65707;52.362;6.588;2023-02-28T13:21:57;59.69;38.58;77.71;;
76767;Laerm;65707;52.362;6.588;2023-02-28T13:24:52;44.59;36.03;56.58;;
76767;Laerm;65707;52.362;6.588;2023-02-28T13:27:43;44.73;36.14;59.51;;
76767;Laerm;65707;52.362;6.588;2023-02-28T13:31:04;53.95;37.78;72.77;;
76767;Laerm;65707;52.362;6.588;2023-02-28T13:33:34;44.61;37.03;54.28;;
76767;Laerm;65707;52.362;6.588;2023-02-28T13:36:12;43.91;36.85;55.50;;
76767;Laerm;65707;52.362;6.588;2023-02-28T13:38:50;62.36;37.81;79.72;;
76767;Laerm;65707;52.362;6.588;2023-02-28T13:41:48;56.54;35.38;76.73;;
76767;Laerm;65707;52.362;6.588;2023-02-28T13:44:20;44.07;35.56;58.67;;
76767;Laerm;65707;52.362;6.588;2023-02-28T13:47:23;45.03;34.39;59.66;;
76767;Laerm;65707;52.362;6.588;2023-02-28T13:50:18;59.12;36.74;78.48;;
76767;Laerm;65707;52.362;6.588;2023-02-28T13:53:21;43.53;35.32;52.38;;
76767;Laerm;65707;52.362;6.588;2023-02-28T13:55:54;43.21;36.14;52.98;;
76767;Laerm;65707;52.362;6.588;2023-02-28T13:58:43;51.21;34.75;70.24;;
76767;Laerm;65707;52.362;6.588;2023-02-28T14:01:23;51.06;37.52;72.43;;
76767;Laerm;65707;52.362;6.588;2023-02-28T14:04:12;45.46;37.08;62.90;;
76767;Laerm;65707;52.362;6.588;2023-02-28T14:06:50;46.27;34.88;56.95;;
76767;Laerm;65707;52.362;6.588;2023-02-28T14:09:23;43.72;35.72;58.04;;
76767;Laerm;65707;52.362;6.588;2023-02-28T14:11:52;58.76;36.37;78.44;;
76767;Laerm;65707;52.362;6.588;2023-02-28T14:14:54;54.85;36.97;78.20;;
76767;Laerm;65707;52.362;6.588;2023-02-28T14:17:24;44.69;36.12;55.17;;
76767;Laerm;65707;52.362;6.588;2023-02-28T14:19:51;59.31;37.27;79.01;;
76767;Laerm;65707;52.362;6.588;2023-02-28T14:22:53;62.29;36.49;79.23;;
76767;Laerm;65707;52.362;6.588;2023-02-28T14:25:33;44.01;36.05;54.86;;